sensor_id;sensor_type;location;lat;lon;timestamp;P1;durP1;ratioP1;P2;durP2;ratioP2
77866;SDS011;67271;59.120;37.970;2023-07-08T00:03:28;56.33;;;26.27;;
77866;SDS011;67271;59.120;37.970;2023-07-08T00:05:55;41.83;;;19.38;;
77866;SDS011;67271;59.120;37.970;2023-07-08T00:08:21;44.88;;;21.35;;
77866;SDS011;67271;59.120;37.970;2023-07-08T00:10:47;40.78;;;18.10;;
77866;SDS011;67271;59.120;37.970;2023-07-08T00:13:13;45.92;;;20.00;;
77866;SDS011;67271;59.120;37.970;2023-07-08T00:15:39;33.50;;;17.02;;
77866;SDS011;67271;59.120;37.970;2023-07-08T00:18:16;37.58;;;17.38;;
77866;SDS011;67271;59.120;37.970;2023-07-08T00:20:47;39.63;;;17.38;;
77866;SDS011;67271;59.120;37.970;2023-07-08T00:23:14;38.25;;;17.92;;
77866;SDS011;67271;59.120;37.970;2023-07-08T00:25:40;47.47;;;20.83;;
77866;SDS011;67271;59.120;37.970;2023-07-08T00:28:17;38.72;;;18.10;;
77866;SDS011;67271;59.120;37.970;2023-07-08T00:30:46;28.52;;;15.05;;
77866;SDS011;67271;59.120;37.970;2023-07-08T00:33:15;28.65;;;14.27;;
77866;SDS011;67271;59.120;37.970;2023-07-08T00:35:42;31.63;;;15.88;;
77866;SDS011;67271;59.120;37.970;2023-07-08T00:40:57;41.63;;;19.52;;
77866;SDS011;67271;59.120;37.970;2023-07-08T00:43:39;43.83;;;21.83;;
77866;SDS011;67271;59.120;37.970;2023-07-08T00:46:12;65.95;;;28.52;;
77866;SDS011;67271;59.120;37.970;2023-07-08T00:48:50;90.50;;;38.75;;
77866;SDS011;67271;59.120;37.970;2023-07-08T00:51:20;83.60;;;35.75;;
77866;SDS011;67271;59.120;37.970;2023-07-08T00:53:48;89.70;;;41.05;;
77866;SDS011;67271;59.120;37.970;2023-07-08T00:56:16;93.32;;;41.67;;
77866;SDS011;67271;59.120;37.970;2023-07-08T01:01:51;74.47;;;31.50;;
77866;SDS011;67271;59.120;37.970;2023-07-08T01:04:25;50.17;;;25.90;;
77866;SDS011;67271;59.120;37.970;2023-07-08T01:06:57;64.90;;;25.73;;
77866;SDS011;67271;59.120;37.970;2023-07-08T01:09:31;57.42;;;27.90;;
77866;SDS011;67271;59.120;37.970;2023-07-08T01:12:13;58.83;;;27.92;;
77866;SDS011;67271;59.120;37.970;2023-07-08T01:14:45;43.95;;;21.33;;
77866;SDS011;67271;59.120;37.970;2023-07-08T01:17:13;36.33;;;20.38;;
77866;SDS011;67271;59.120;37.970;2023-07-08T01:19:43;32.38;;;18.80;;
77866;SDS011;67271;59.120;37.970;2023-07-08T01:22:10;43.72;;;19.70;;
77866;SDS011;67271;59.120;37.970;2023-07-08T01:24:37;33.95;;;17.23;;
77866;SDS011;67271;59.120;37.970;2023-07-08T01:27:07;31.67;;;17.77;;
77866;SDS011;67271;59.120;37.970;2023-07-08T01:29:35;38.13;;;16.73;;
77866;SDS011;67271;59.120;37.970;2023-07-08T01:32:01;41.33;;;18.88;;
77866;SDS011;67271;59.120;37.970;2023-07-08T01:34:31;41.20;;;19.45;;
77866;SDS011;67271;59.120;37.970;2023-07-08T01:36:59;36.75;;;20.25;;
77866;SDS011;67271;59.120;37.970;2023-07-08T01:39:29;46.60;;;22.30;;
77866;SDS011;67271;59.120;37.970;2023-07-08T01:41:59;55.78;;;25.83;;
77866;SDS011;67271;59.120;37.970;2023-07-08T01:44:30;67.90;;;31.67;;
77866;SDS011;67271;59.120;37.970;2023-07-08T01:49:46;97.90;;;39.70;;
77866;SDS011;67271;59.120;37.970;2023-07-08T01:52:13;121.45;;;47.22;;
77866;SDS011;67271;59.120;37.970;2023-07-08T01:54:42;125.63;;;49.28;;
77866;SDS011;67271;59.120;37.970;2023-07-08T01:57:08;110.85;;;45.80;;
77866;SDS011;67271;59.120;37.970;2023-07-08T01:59:34;105.72;;;44.78;;
77866;SDS011;67271;59.120;37.970;2023-07-08T02:02:00;111.32;;;44.75;;
77866;SDS011;67271;59.120;37.970;2023-07-08T02:04:26;108.15;;;43.88;;
77866;SDS011;67271;59.120;37.970;2023-07-08T02:06:56;101.90;;;42.42;;
77866;SDS011;67271;59.120;37.970;2023-07-08T02:09:24;88.75;;;38.30;;
77866;SDS011;67271;59.120;37.970;2023-07-08T02:11:52;106.63;;;42.72;;
77866;SDS011;67271;59.120;37.970;2023-07-08T02:14:19;100.32;;;44.80;;
77866;SDS011;67271;59.120;37.970;2023-07-08T02:16:45;116.38;;;45.30;;
77866;SDS011;67271;59.120;37.970;2023-07-08T02:19:11;116.03;;;46.83;;
77866;SDS011;67271;59.120;37.970;2023-07-08T02:21:37;118.65;;;46.42;;
77866;SDS011;67271;59.120;37.970;2023-07-08T02:24:04;90.88;;;39.05;;
77866;SDS011;67271;59.120;37.970;2023-07-08T02:26:30;103.53;;;41.55;;
77866;SDS011;67271;59.120;37.970;2023-07-08T02:28:59;101.65;;;39.17;;
77866;SDS011;67271;59.120;37.970;2023-07-08T02:31:26;86.68;;;39.40;;
77866;SDS011;67271;59.120;37.970;2023-07-08T02:33:52;112.25;;;43.67;;
77866;SDS011;67271;59.120;37.970;2023-07-08T02:36:18;116.88;;;46.17;;
77866;SDS011;67271;59.120;37.970;2023-07-08T02:38:45;100.50;;;43.60;;
77866;SDS011;67271;59.120;37.970;2023-07-08T02:41:11;93.78;;;39.28;;
77866;SDS011;67271;59.120;37.970;2023-07-08T02:43:38;88.07;;;35.97;;
77866;SDS011;67271;59.120;37.970;2023-07-08T02:46:04;69.60;;;33.08;;
77866;SDS011;67271;59.120;37.970;2023-07-08T02:48:31;81.15;;;35.85;;
77866;SDS011;67271;59.120;37.970;2023-07-08T02:51:00;89.53;;;37.17;;
77866;SDS011;67271;59.120;37.970;2023-07-08T02:53:30;78.55;;;33.92;;
77866;SDS011;67271;59.120;37.970;2023-07-08T02:55:56;81.80;;;34.95;;
77866;SDS011;67271;59.120;37.970;2023-07-08T02:58:23;98.30;;;34.70;;
77866;SDS011;67271;59.120;37.970;2023-07-08T03:00:56;87.35;;;33.42;;
77866;SDS011;67271;59.120;37.970;2023-07-08T03:03:26;66.18;;;27.40;;
77866;SDS011;67271;59.120;37.970;2023-07-08T03:05:56;65.25;;;28.40;;
77866;SDS011;67271;59.120;37.970;2023-07-08T03:08:24;77.13;;;32.20;;
77866;SDS011;67271;59.120;37.970;2023-07-08T03:10:58;64.43;;;24.50;;
77866;SDS011;67271;59.120;37.970;2023-07-08T03:13:25;50.30;;;22.55;;
77866;SDS011;67271;59.120;37.970;2023-07-08T03:15:53;45.00;;;21.52;;
77866;SDS011;67271;59.120;37.970;2023-07-08T03:18:22;43.03;;;19.10;;
77866;SDS011;67271;59.120;37.970;2023-07-08T03:20:55;36.58;;;18.95;;
77866;SDS011;67271;59.120;37.970;2023-07-08T03:23:23;37.80;;;16.35;;
77866;SDS011;67271;59.120;37.970;2023-07-08T03:25:51;33.47;;;16.50;;
77866;SDS011;67271;59.120;37.970;2023-07-08T03:28:19;44.58;;;21.02;;
77866;SDS011;67271;59.120;37.970;2023-07-08T03:30:44;40.17;;;18.38;;
77866;SDS011;67271;59.120;37.970;2023-07-08T03:33:11;45.70;;;20.30;;
77866;SDS011;67271;59.120;37.970;2023-07-08T03:35:39;65.20;;;26.42;;
77866;SDS011;67271;59.120;37.970;2023-07-08T03:38:05;57.15;;;25.60;;
77866;SDS011;67271;59.120;37.970;2023-07-08T03:40:32;57.13;;;26.52;;
77866;SDS011;67271;59.120;37.970;2023-07-08T03:42:58;65.03;;;27.48;;
77866;SDS011;67271;59.120;37.970;2023-07-08T03:45:26;58.67;;;26.52;;
77866;SDS011;67271;59.120;37.970;2023-07-08T03:47:53;67.88;;;27.52;;
77866;SDS011;67271;59.120;37.970;2023-07-08T03:50:20;69.63;;;27.17;;
77866;SDS011;67271;59.120;37.970;2023-07-08T03:52:49;33.90;;;16.40;;
77866;SDS011;67271;59.120;37.970;2023-07-08T03:55:16;29.23;;;14.35;;
77866;SDS011;67271;59.120;37.970;2023-07-08T03:57:42;33.30;;;14.95;;
77866;SDS011;67271;59.120;37.970;2023-07-08T04:00:09;28.30;;;12.90;;
77866;SDS011;67271;59.120;37.970;2023-07-08T04:02:40;23.98;;;10.45;;
77866;SDS011;67271;59.120;37.970;2023-07-08T04:05:16;23.08;;;9.88;;
77866;SDS011;67271;59.120;37.970;2023-07-08T04:07:44;16.77;;;9.95;;
77866;SDS011;67271;59.120;37.970;2023-07-08T04:10:11;16.30;;;8.38;;
77866;SDS011;67271;59.120;37.970;2023-07-08T04:12:37;16.77;;;8.88;;
77866;SDS011;67271;59.120;37.970;2023-07-08T04:15:05;12.50;;;6.90;;
77866;SDS011;67271;59.120;37.970;2023-07-08T04:17:34;16.85;;;7.10;;
77866;SDS011;67271;59.120;37.970;2023-07-08T04:20:03;11.63;;;6.93;;
77866;SDS011;67271;59.120;37.970;2023-07-08T04:22:30;12.80;;;7.80;;
77866;SDS011;67271;59.120;37.970;2023-07-08T04:24:55;10.80;;;6.50;;
77866;SDS011;67271;59.120;37.970;2023-07-08T04:27:21;9.70;;;5.70;;
77866;SDS011;67271;59.120;37.970;2023-07-08T04:29:47;11.63;;;6.82;;
77866;SDS011;67271;59.120;37.970;2023-07-08T04:32:15;13.30;;;5.75;;
77866;SDS011;67271;59.120;37.970;2023-07-08T04:34:41;8.98;;;6.07;;
77866;SDS011;67271;59.120;37.970;2023-07-08T04:37:08;12.20;;;6.38;;
77866;SDS011;67271;59.120;37.970;2023-07-08T04:39:36;10.32;;;6.53;;
77866;SDS011;67271;59.120;37.970;2023-07-08T04:42:02;12.27;;;6.50;;
77866;SDS011;67271;59.120;37.970;2023-07-08T04:44:28;8.90;;;5.28;;
77866;SDS011;67271;59.120;37.970;2023-07-08T04:46:54;13.95;;;6.45;;
77866;SDS011;67271;59.120;37.970;2023-07-08T04:49:22;10.18;;;6.47;;
77866;SDS011;67271;59.120;37.970;2023-07-08T04:51:50;9.80;;;6.13;;
77866;SDS011;67271;59.120;37.970;2023-07-08T04:54:17;12.60;;;5.57;;
77866;SDS011;67271;59.120;37.970;2023-07-08T04:56:44;9.93;;;6.65;;
77866;SDS011;67271;59.120;37.970;2023-07-08T04:59:13;10.13;;;6.15;;
77866;SDS011;67271;59.120;37.970;2023-07-08T05:01:41;10.13;;;5.65;;
77866;SDS011;67271;59.120;37.970;2023-07-08T05:04:07;10.98;;;6.45;;
77866;SDS011;67271;59.120;37.970;2023-07-08T05:06:37;15.13;;;6.57;;
77866;SDS011;67271;59.120;37.970;2023-07-08T05:09:04;10.80;;;6.30;;
77866;SDS011;67271;59.120;37.970;2023-07-08T05:11:31;9.52;;;6.25;;
77866;SDS011;67271;59.120;37.970;2023-07-08T05:13:57;14.65;;;7.53;;
77866;SDS011;67271;59.120;37.970;2023-07-08T05:16:23;14.48;;;7.07;;
77866;SDS011;67271;59.120;37.970;2023-07-08T05:18:49;12.23;;;7.32;;
77866;SDS011;67271;59.120;37.970;2023-07-08T05:21:15;15.10;;;7.60;;
77866;SDS011;67271;59.120;37.970;2023-07-08T05:23:42;15.63;;;7.97;;
77866;SDS011;67271;59.120;37.970;2023-07-08T05:26:09;14.55;;;7.97;;
77866;SDS011;67271;59.120;37.970;2023-07-08T05:28:35;16.85;;;9.05;;
77866;SDS011;67271;59.120;37.970;2023-07-08T05:31:01;16.77;;;8.95;;
77866;SDS011;67271;59.120;37.970;2023-07-08T05:33:28;17.08;;;7.50;;
77866;SDS011;67271;59.120;37.970;2023-07-08T05:35:55;14.63;;;7.35;;
77866;SDS011;67271;59.120;37.970;2023-07-08T05:38:21;13.73;;;7.95;;
77866;SDS011;67271;59.120;37.970;2023-07-08T05:40:51;15.23;;;6.70;;
77866;SDS011;67271;59.120;37.970;2023-07-08T05:43:20;14.20;;;7.85;;
77866;SDS011;67271;59.120;37.970;2023-07-08T05:45:46;12.00;;;5.95;;
77866;SDS011;67271;59.120;37.970;2023-07-08T05:48:12;8.52;;;6.30;;
77866;SDS011;67271;59.120;37.970;2023-07-08T05:50:39;8.82;;;6.60;;
77866;SDS011;67271;59.120;37.970;2023-07-08T05:53:05;12.65;;;5.55;;
77866;SDS011;67271;59.120;37.970;2023-07-08T05:55:34;10.35;;;5.88;;
77866;SDS011;67271;59.120;37.970;2023-07-08T05:58:00;13.35;;;6.55;;
77866;SDS011;67271;59.120;37.970;2023-07-08T06:00:26;8.98;;;5.32;;
77866;SDS011;67271;59.120;37.970;2023-07-08T06:02:52;10.68;;;6.28;;
77866;SDS011;67271;59.120;37.970;2023-07-08T06:05:18;12.77;;;5.82;;
77866;SDS011;67271;59.120;37.970;2023-07-08T06:07:44;11.73;;;6.45;;
77866;SDS011;67271;59.120;37.970;2023-07-08T06:10:10;10.88;;;6.25;;
77866;SDS011;67271;59.120;37.970;2023-07-08T06:12:36;11.15;;;6.10;;
77866;SDS011;67271;59.120;37.970;2023-07-08T06:15:02;12.60;;;6.55;;
77866;SDS011;67271;59.120;37.970;2023-07-08T06:17:28;9.75;;;6.55;;
77866;SDS011;67271;59.120;37.970;2023-07-08T06:19:54;9.32;;;5.53;;
77866;SDS011;67271;59.120;37.970;2023-07-08T06:22:20;11.02;;;6.55;;
77866;SDS011;67271;59.120;37.970;2023-07-08T06:24:46;14.32;;;6.57;;
77866;SDS011;67271;59.120;37.970;2023-07-08T06:27:13;11.82;;;6.57;;
77866;SDS011;67271;59.120;37.970;2023-07-08T06:29:39;9.77;;;6.57;;
77866;SDS011;67271;59.120;37.970;2023-07-08T06:32:05;14.02;;;7.43;;
77866;SDS011;67271;59.120;37.970;2023-07-08T06:34:31;17.35;;;7.07;;
77866;SDS011;67271;59.120;37.970;2023-07-08T06:36:57;19.30;;;9.57;;
77866;SDS011;67271;59.120;37.970;2023-07-08T06:39:23;17.38;;;9.68;;
77866;SDS011;67271;59.120;37.970;2023-07-08T06:41:49;20.30;;;9.88;;
77866;SDS011;67271;59.120;37.970;2023-07-08T06:44:16;17.80;;;9.55;;
77866;SDS011;67271;59.120;37.970;2023-07-08T06:46:42;19.85;;;9.52;;
77866;SDS011;67271;59.120;37.970;2023-07-08T06:49:09;20.38;;;9.85;;
77866;SDS011;67271;59.120;37.970;2023-07-08T06:51:35;28.55;;;11.82;;
77866;SDS011;67271;59.120;37.970;2023-07-08T06:54:01;33.30;;;16.13;;
77866;SDS011;67271;59.120;37.970;2023-07-08T06:56:39;33.65;;;16.05;;
77866;SDS011;67271;59.120;37.970;2023-07-08T06:59:06;56.75;;;23.30;;
77866;SDS011;67271;59.120;37.970;2023-07-08T07:01:33;47.47;;;19.48;;
77866;SDS011;67271;59.120;37.970;2023-07-08T07:04:00;24.67;;;9.30;;
77866;SDS011;67271;59.120;37.970;2023-07-08T07:06:26;15.10;;;8.10;;
77866;SDS011;67271;59.120;37.970;2023-07-08T07:08:52;19.48;;;9.95;;
77866;SDS011;67271;59.120;37.970;2023-07-08T07:11:18;31.30;;;11.45;;
77866;SDS011;67271;59.120;37.970;2023-07-08T07:13:45;21.33;;;9.77;;
77866;SDS011;67271;59.120;37.970;2023-07-08T07:16:11;21.90;;;9.70;;
77866;SDS011;67271;59.120;37.970;2023-07-08T07:18:37;15.32;;;7.88;;
77866;SDS011;67271;59.120;37.970;2023-07-08T07:21:03;14.63;;;6.82;;
77866;SDS011;67271;59.120;37.970;2023-07-08T07:23:29;15.88;;;7.60;;
77866;SDS011;67271;59.120;37.970;2023-07-08T07:25:55;21.83;;;8.43;;
77866;SDS011;67271;59.120;37.970;2023-07-08T07:28:22;18.42;;;8.52;;
77866;SDS011;67271;59.120;37.970;2023-07-08T07:30:55;16.40;;;8.10;;
77866;SDS011;67271;59.120;37.970;2023-07-08T07:33:23;12.65;;;6.75;;
77866;SDS011;67271;59.120;37.970;2023-07-08T07:35:50;14.07;;;8.00;;
77866;SDS011;67271;59.120;37.970;2023-07-08T07:38:16;14.63;;;7.25;;
77866;SDS011;67271;59.120;37.970;2023-07-08T07:40:42;13.32;;;6.55;;
77866;SDS011;67271;59.120;37.970;2023-07-08T07:43:09;11.88;;;7.00;;
77866;SDS011;67271;59.120;37.970;2023-07-08T07:45:35;11.30;;;7.22;;
77866;SDS011;67271;59.120;37.970;2023-07-08T07:48:01;10.38;;;6.70;;
77866;SDS011;67271;59.120;37.970;2023-07-08T07:50:28;11.27;;;7.40;;
77866;SDS011;67271;59.120;37.970;2023-07-08T07:52:55;14.45;;;6.65;;
77866;SDS011;67271;59.120;37.970;2023-07-08T07:55:22;11.43;;;7.20;;
77866;SDS011;67271;59.120;37.970;2023-07-08T07:57:48;10.82;;;6.68;;
77866;SDS011;67271;59.120;37.970;2023-07-08T08:00:14;16.73;;;7.68;;
77866;SDS011;67271;59.120;37.970;2023-07-08T08:02:43;17.73;;;8.25;;
77866;SDS011;67271;59.120;37.970;2023-07-08T08:05:09;14.77;;;8.05;;
77866;SDS011;67271;59.120;37.970;2023-07-08T08:07:35;14.80;;;7.97;;
77866;SDS011;67271;59.120;37.970;2023-07-08T08:10:03;15.15;;;7.22;;
77866;SDS011;67271;59.120;37.970;2023-07-08T08:12:30;14.15;;;7.70;;
77866;SDS011;67271;59.120;37.970;2023-07-08T08:14:56;12.50;;;7.47;;
77866;SDS011;67271;59.120;37.970;2023-07-08T08:17:22;14.40;;;7.65;;
77866;SDS011;67271;59.120;37.970;2023-07-08T08:19:47;19.30;;;10.18;;
77866;SDS011;67271;59.120;37.970;2023-07-08T08:22:13;32.90;;;15.18;;
77866;SDS011;67271;59.120;37.970;2023-07-08T08:24:40;31.42;;;13.98;;
77866;SDS011;67271;59.120;37.970;2023-07-08T08:27:06;28.63;;;15.55;;
77866;SDS011;67271;59.120;37.970;2023-07-08T08:29:32;24.10;;;13.32;;
77866;SDS011;67271;59.120;37.970;2023-07-08T08:31:58;20.45;;;10.50;;
77866;SDS011;67271;59.120;37.970;2023-07-08T08:34:24;16.33;;;8.77;;
77866;SDS011;67271;59.120;37.970;2023-07-08T08:36:50;22.17;;;8.30;;
77866;SDS011;67271;59.120;37.970;2023-07-08T08:39:21;15.35;;;8.00;;
77866;SDS011;67271;59.120;37.970;2023-07-08T08:41:47;11.40;;;6.25;;
77866;SDS011;67271;59.120;37.970;2023-07-08T08:44:21;14.68;;;7.82;;
77866;SDS011;67271;59.120;37.970;2023-07-08T08:47:13;15.23;;;7.57;;
77866;SDS011;67271;59.120;37.970;2023-07-08T08:50:00;23.23;;;10.18;;
77866;SDS011;67271;59.120;37.970;2023-07-08T08:52:45;25.80;;;11.82;;
77866;SDS011;67271;59.120;37.970;2023-07-08T08:55:14;23.98;;;10.57;;
77866;SDS011;67271;59.120;37.970;2023-07-08T08:58:02;19.63;;;7.97;;
77866;SDS011;67271;59.120;37.970;2023-07-08T09:00:56;11.30;;;6.10;;
77866;SDS011;67271;59.120;37.970;2023-07-08T09:06:15;16.45;;;7.20;;
77866;SDS011;67271;59.120;37.970;2023-07-08T09:08:44;14.93;;;6.55;;
77866;SDS011;67271;59.120;37.970;2023-07-08T09:11:18;15.45;;;6.50;;
77866;SDS011;67271;59.120;37.970;2023-07-08T09:13:46;9.65;;;5.53;;
77866;SDS011;67271;59.120;37.970;2023-07-08T09:16:26;9.00;;;5.60;;
77866;SDS011;67271;59.120;37.970;2023-07-08T09:19:14;8.43;;;5.53;;
77866;SDS011;67271;59.120;37.970;2023-07-08T09:24:49;17.58;;;6.25;;
77866;SDS011;67271;59.120;37.970;2023-07-08T09:27:22;10.30;;;5.53;;
77866;SDS011;67271;59.120;37.970;2023-07-08T09:29:51;15.43;;;5.10;;
77866;SDS011;67271;59.120;37.970;2023-07-08T09:32:18;5.80;;;4.35;;
77866;SDS011;67271;59.120;37.970;2023-07-08T09:34:47;7.72;;;4.38;;
77866;SDS011;67271;59.120;37.970;2023-07-08T09:39:56;9.82;;;5.28;;
77866;SDS011;67271;59.120;37.970;2023-07-08T09:42:31;11.45;;;4.88;;
77866;SDS011;67271;59.120;37.970;2023-07-08T09:45:00;5.82;;;4.00;;
77866;SDS011;67271;59.120;37.970;2023-07-08T09:47:33;11.88;;;4.95;;
77866;SDS011;67271;59.120;37.970;2023-07-08T09:50:03;7.00;;;3.70;;
77866;SDS011;67271;59.120;37.970;2023-07-08T09:52:38;6.65;;;4.80;;
77866;SDS011;67271;59.120;37.970;2023-07-08T09:55:04;6.82;;;4.88;;
77866;SDS011;67271;59.120;37.970;2023-07-08T09:57:35;7.03;;;4.43;;
77866;SDS011;67271;59.120;37.970;2023-07-08T10:00:08;6.80;;;5.00;;
77866;SDS011;67271;59.120;37.970;2023-07-08T10:05:13;6.60;;;4.47;;
77866;SDS011;67271;59.120;37.970;2023-07-08T10:07:44;8.07;;;4.22;;
77866;SDS011;67271;59.120;37.970;2023-07-08T10:10:16;5.88;;;3.83;;
77866;SDS011;67271;59.120;37.970;2023-07-08T10:13:02;6.18;;;4.45;;
77866;SDS011;67271;59.120;37.970;2023-07-08T10:15:33;16.38;;;5.13;;
77866;SDS011;67271;59.120;37.970;2023-07-08T10:18:04;6.25;;;3.88;;
77866;SDS011;67271;59.120;37.970;2023-07-08T10:21:18;5.63;;;3.78;;
77866;SDS011;67271;59.120;37.970;2023-07-08T10:24:16;6.22;;;4.13;;
77866;SDS011;67271;59.120;37.970;2023-07-08T10:26:32;9.27;;;4.05;;
77866;SDS011;67271;59.120;37.970;2023-07-08T10:34:24;6.55;;;5.00;;
77866;SDS011;67271;59.120;37.970;2023-07-08T10:37:15;5.90;;;3.90;;
77866;SDS011;67271;59.120;37.970;2023-07-08T10:40:12;10.40;;;4.85;;
77866;SDS011;67271;59.120;37.970;2023-07-08T10:43:11;10.82;;;4.88;;
77866;SDS011;67271;59.120;37.970;2023-07-08T10:54:08;5.32;;;4.15;;
77866;SDS011;67271;59.120;37.970;2023-07-08T11:07:36;8.18;;;3.47;;
77866;SDS011;67271;59.120;37.970;2023-07-08T11:10:06;5.07;;;3.28;;
77866;SDS011;67271;59.120;37.970;2023-07-08T11:13:25;7.53;;;3.70;;
77866;SDS011;67271;59.120;37.970;2023-07-08T11:15:42;10.30;;;3.30;;
77866;SDS011;67271;59.120;37.970;2023-07-08T11:18:18;5.32;;;3.60;;
77866;SDS011;67271;59.120;37.970;2023-07-08T11:20:52;6.55;;;3.88;;
77866;SDS011;67271;59.120;37.970;2023-07-08T11:23:38;5.03;;;2.90;;
77866;SDS011;67271;59.120;37.970;2023-07-08T11:28:59;3.38;;;2.55;;
77866;SDS011;67271;59.120;37.970;2023-07-08T11:31:27;4.90;;;3.15;;
77866;SDS011;67271;59.120;37.970;2023-07-08T11:33:56;3.97;;;3.17;;
77866;SDS011;67271;59.120;37.970;2023-07-08T11:36:23;4.72;;;3.20;;
77866;SDS011;67271;59.120;37.970;2023-07-08T11:38:54;8.43;;;3.35;;
77866;SDS011;67271;59.120;37.970;2023-07-08T11:41:22;6.75;;;3.50;;
77866;SDS011;67271;59.120;37.970;2023-07-08T11:43:52;8.15;;;3.47;;
77866;SDS011;67271;59.120;37.970;2023-07-08T11:46:29;11.02;;;3.13;;
77866;SDS011;67271;59.120;37.970;2023-07-08T11:49:10;5.45;;;3.15;;
77866;SDS011;67271;59.120;37.970;2023-07-08T11:51:40;6.75;;;2.80;;
77866;SDS011;67271;59.120;37.970;2023-07-08T11:57:06;5.38;;;3.10;;
77866;SDS011;67271;59.120;37.970;2023-07-08T11:59:38;4.40;;;2.88;;
77866;SDS011;67271;59.120;37.970;2023-07-08T12:02:18;4.65;;;2.70;;
77866;SDS011;67271;59.120;37.970;2023-07-08T12:07:47;5.53;;;2.90;;
77866;SDS011;67271;59.120;37.970;2023-07-08T12:10:27;5.75;;;2.30;;
77866;SDS011;67271;59.120;37.970;2023-07-08T12:12:56;4.78;;;3.10;;
77866;SDS011;67271;59.120;37.970;2023-07-08T12:15:26;7.88;;;3.17;;
77866;SDS011;67271;59.120;37.970;2023-07-08T12:17:55;4.55;;;2.67;;
77866;SDS011;67271;59.120;37.970;2023-07-08T12:20:33;7.38;;;4.55;;
77866;SDS011;67271;59.120;37.970;2023-07-08T12:23:01;7.63;;;4.40;;
77866;SDS011;67271;59.120;37.970;2023-07-08T12:25:30;10.13;;;3.97;;
77866;SDS011;67271;59.120;37.970;2023-07-08T12:27:57;7.88;;;3.65;;
77866;SDS011;67271;59.120;37.970;2023-07-08T12:30:24;8.35;;;3.85;;
77866;SDS011;67271;59.120;37.970;2023-07-08T12:32:52;10.10;;;3.15;;
77866;SDS011;67271;59.120;37.970;2023-07-08T12:35:38;10.15;;;3.67;;
77866;SDS011;67271;59.120;37.970;2023-07-08T12:40:38;5.65;;;2.67;;
77866;SDS011;67271;59.120;37.970;2023-07-08T12:43:07;4.63;;;2.42;;
77866;SDS011;67271;59.120;37.970;2023-07-08T12:45:35;4.95;;;2.42;;
77866;SDS011;67271;59.120;37.970;2023-07-08T12:48:02;7.88;;;2.35;;
77866;SDS011;67271;59.120;37.970;2023-07-08T12:50:28;2.85;;;2.20;;
77866;SDS011;67271;59.120;37.970;2023-07-08T12:52:54;4.57;;;2.38;;
77866;SDS011;67271;59.120;37.970;2023-07-08T12:55:21;2.95;;;2.28;;
77866;SDS011;67271;59.120;37.970;2023-07-08T12:57:49;13.07;;;5.53;;
77866;SDS011;67271;59.120;37.970;2023-07-08T13:00:27;14.73;;;6.22;;
77866;SDS011;67271;59.120;37.970;2023-07-08T13:03:05;12.20;;;4.63;;
77866;SDS011;67271;59.120;37.970;2023-07-08T13:05:38;12.73;;;4.35;;
77866;SDS011;67271;59.120;37.970;2023-07-08T13:08:06;8.32;;;3.65;;
77866;SDS011;67271;59.120;37.970;2023-07-08T13:10:36;8.52;;;3.63;;
77866;SDS011;67271;59.120;37.970;2023-07-08T13:13:03;9.80;;;3.72;;
77866;SDS011;67271;59.120;37.970;2023-07-08T13:15:35;12.82;;;3.90;;
77866;SDS011;67271;59.120;37.970;2023-07-08T13:18:05;7.97;;;3.10;;
77866;SDS011;67271;59.120;37.970;2023-07-08T13:20:38;3.65;;;2.70;;
77866;SDS011;67271;59.120;37.970;2023-07-08T13:23:04;9.68;;;2.92;;
77866;SDS011;67271;59.120;37.970;2023-07-08T13:25:31;10.43;;;5.63;;
77866;SDS011;67271;59.120;37.970;2023-07-08T13:28:40;15.00;;;4.13;;
77866;SDS011;67271;59.120;37.970;2023-07-08T13:30:59;11.18;;;3.70;;
77866;SDS011;67271;59.120;37.970;2023-07-08T13:33:30;9.93;;;3.95;;
77866;SDS011;67271;59.120;37.970;2023-07-08T13:35:57;6.43;;;2.80;;
77866;SDS011;67271;59.120;37.970;2023-07-08T13:38:35;4.72;;;2.40;;
77866;SDS011;67271;59.120;37.970;2023-07-08T13:41:03;4.72;;;2.70;;
77866;SDS011;67271;59.120;37.970;2023-07-08T13:43:36;5.65;;;2.70;;
77866;SDS011;67271;59.120;37.970;2023-07-08T13:46:05;9.18;;;3.00;;
77866;SDS011;67271;59.120;37.970;2023-07-08T13:48:36;3.47;;;2.25;;
77866;SDS011;67271;59.120;37.970;2023-07-08T13:51:09;3.75;;;2.53;;
77866;SDS011;67271;59.120;37.970;2023-07-08T13:53:46;3.03;;;2.35;;
77866;SDS011;67271;59.120;37.970;2023-07-08T13:58:59;5.15;;;2.78;;
77866;SDS011;67271;59.120;37.970;2023-07-08T14:01:28;2.88;;;2.20;;
77866;SDS011;67271;59.120;37.970;2023-07-08T14:03:57;2.95;;;2.33;;
77866;SDS011;67271;59.120;37.970;2023-07-08T14:06:24;6.30;;;2.67;;
77866;SDS011;67271;59.120;37.970;2023-07-08T14:08:56;4.32;;;2.30;;
77866;SDS011;67271;59.120;37.970;2023-07-08T14:11:26;6.22;;;4.00;;
77866;SDS011;67271;59.120;37.970;2023-07-08T14:13:52;5.45;;;2.65;;
77866;SDS011;67271;59.120;37.970;2023-07-08T14:16:25;9.65;;;2.70;;
77866;SDS011;67271;59.120;37.970;2023-07-08T14:18:55;2.97;;;2.22;;
77866;SDS011;67271;59.120;37.970;2023-07-08T14:21:22;3.08;;;2.60;;
77866;SDS011;67271;59.120;37.970;2023-07-08T14:23:48;6.57;;;2.85;;
77866;SDS011;67271;59.120;37.970;2023-07-08T14:26:14;5.93;;;2.42;;
77866;SDS011;67271;59.120;37.970;2023-07-08T14:28:40;4.90;;;2.83;;
77866;SDS011;67271;59.120;37.970;2023-07-08T14:31:13;2.90;;;2.30;;
77866;SDS011;67271;59.120;37.970;2023-07-08T14:33:42;4.07;;;2.35;;
77866;SDS011;67271;59.120;37.970;2023-07-08T14:36:12;6.15;;;2.70;;
77866;SDS011;67271;59.120;37.970;2023-07-08T14:38:39;4.90;;;2.55;;
77866;SDS011;67271;59.120;37.970;2023-07-08T14:41:05;4.30;;;2.47;;
77866;SDS011;67271;59.120;37.970;2023-07-08T14:43:32;3.78;;;2.58;;
77866;SDS011;67271;59.120;37.970;2023-07-08T14:45:59;7.95;;;3.92;;
77866;SDS011;67271;59.120;37.970;2023-07-08T14:48:28;4.82;;;2.65;;
77866;SDS011;67271;59.120;37.970;2023-07-08T14:50:54;4.25;;;2.70;;
77866;SDS011;67271;59.120;37.970;2023-07-08T14:53:20;2.95;;;2.33;;
77866;SDS011;67271;59.120;37.970;2023-07-08T14:55:47;6.18;;;2.30;;
77866;SDS011;67271;59.120;37.970;2023-07-08T14:58:17;4.85;;;2.40;;
77866;SDS011;67271;59.120;37.970;2023-07-08T15:00:54;2.90;;;2.15;;
77866;SDS011;67271;59.120;37.970;2023-07-08T15:03:22;5.63;;;2.22;;
77866;SDS011;67271;59.120;37.970;2023-07-08T15:05:51;3.65;;;2.25;;
77866;SDS011;67271;59.120;37.970;2023-07-08T15:08:17;3.50;;;2.70;;
77866;SDS011;67271;59.120;37.970;2023-07-08T15:10:44;3.90;;;2.30;;
77866;SDS011;67271;59.120;37.970;2023-07-08T15:13:13;3.25;;;2.53;;
77866;SDS011;67271;59.120;37.970;2023-07-08T15:15:40;4.55;;;2.30;;
77866;SDS011;67271;59.120;37.970;2023-07-08T15:18:11;4.65;;;2.58;;
77866;SDS011;67271;59.120;37.970;2023-07-08T15:20:39;5.72;;;2.40;;
77866;SDS011;67271;59.120;37.970;2023-07-08T15:23:05;5.85;;;2.55;;
77866;SDS011;67271;59.120;37.970;2023-07-08T15:25:31;3.05;;;2.22;;
77866;SDS011;67271;59.120;37.970;2023-07-08T15:28:01;3.20;;;2.72;;
77866;SDS011;67271;59.120;37.970;2023-07-08T15:30:28;5.13;;;2.20;;
77866;SDS011;67271;59.120;37.970;2023-07-08T15:32:56;4.35;;;2.53;;
77866;SDS011;67271;59.120;37.970;2023-07-08T15:35:27;3.33;;;2.15;;